sensor_id;sensor_type;location;lat;lon;timestamp;P1;durP1;ratioP1;P2;durP2;ratioP2
51382;SDS011;37475;43.358;1.248;2023-04-24T00:00:10;7.55;;;2.85;;
51382;SDS011;37475;43.358;1.248;2023-04-24T00:02:40;6.38;;;2.90;;
51382;SDS011;37475;43.358;1.248;2023-04-24T00:05:11;8.35;;;3.15;;
51382;SDS011;37475;43.358;1.248;2023-04-24T00:07:38;4.38;;;2.58;;
51382;SDS011;37475;43.358;1.248;2023-04-24T00:10:06;6.68;;;2.30;;
51382;SDS011;37475;43.358;1.248;2023-04-24T00:12:32;7.25;;;2.00;;
51382;SDS011;37475;43.358;1.248;2023-04-24T00:14:58;6.38;;;1.90;;
51382;SDS011;37475;43.358;1.248;2023-04-24T00:17:24;6.20;;;2.20;;
51382;SDS011;37475;43.358;1.248;2023-04-24T00:19:50;5.13;;;1.70;;
51382;SDS011;37475;43.358;1.248;2023-04-24T00:22:16;5.53;;;1.95;;
51382;SDS011;37475;43.358;1.248;2023-04-24T00:24:42;7.40;;;1.98;;
51382;SDS011;37475;43.358;1.248;2023-04-24T00:27:08;6.68;;;1.60;;
51382;SDS011;37475;43.358;1.248;2023-04-24T00:29:34;5.13;;;1.85;;
51382;SDS011;37475;43.358;1.248;2023-04-24T00:32:00;3.53;;;1.70;;
51382;SDS011;37475;43.358;1.248;2023-04-24T00:34:26;9.43;;;1.90;;
51382;SDS011;37475;43.358;1.248;2023-04-24T00:36:51;5.88;;;1.90;;
51382;SDS011;37475;43.358;1.248;2023-04-24T00:39:21;6.05;;;2.20;;
51382;SDS011;37475;43.358;1.248;2023-04-24T00:41:47;6.35;;;2.35;;
51382;SDS011;37475;43.358;1.248;2023-04-24T00:44:14;5.55;;;2.45;;
51382;SDS011;37475;43.358;1.248;2023-04-24T00:46:40;9.10;;;3.08;;
51382;SDS011;37475;43.358;1.248;2023-04-24T00:49:07;7.13;;;3.00;;
51382;SDS011;37475;43.358;1.248;2023-04-24T00:51:33;10.77;;;3.90;;
51382;SDS011;37475;43.358;1.248;2023-04-24T00:53:59;37.33;;;20.73;;
51382;SDS011;37475;43.358;1.248;2023-04-24T00:56:28;37.85;;;21.92;;
51382;SDS011;37475;43.358;1.248;2023-04-24T00:58:54;26.58;;;16.33;;
51382;SDS011;37475;43.358;1.248;2023-04-24T01:01:20;36.47;;;20.33;;
51382;SDS011;37475;43.358;1.248;2023-04-24T01:03:47;39.78;;;22.95;;
51382;SDS011;37475;43.358;1.248;2023-04-24T01:06:16;36.22;;;22.33;;
51382;SDS011;37475;43.358;1.248;2023-04-24T01:08:43;27.00;;;16.25;;
51382;SDS011;37475;43.358;1.248;2023-04-24T01:11:12;19.45;;;10.93;;
51382;SDS011;37475;43.358;1.248;2023-04-24T01:13:37;12.52;;;6.38;;
51382;SDS011;37475;43.358;1.248;2023-04-24T01:16:04;14.50;;;3.83;;
51382;SDS011;37475;43.358;1.248;2023-04-24T01:18:30;10.10;;;3.45;;
51382;SDS011;37475;43.358;1.248;2023-04-24T01:20:57;6.75;;;2.83;;
51382;SDS011;37475;43.358;1.248;2023-04-24T01:23:25;7.85;;;3.50;;
51382;SDS011;37475;43.358;1.248;2023-04-24T01:25:51;8.40;;;3.17;;
51382;SDS011;37475;43.358;1.248;2023-04-24T01:28:17;8.57;;;3.13;;
51382;SDS011;37475;43.358;1.248;2023-04-24T01:30:44;9.30;;;3.63;;
51382;SDS011;37475;43.358;1.248;2023-04-24T01:33:10;10.63;;;4.03;;
51382;SDS011;37475;43.358;1.248;2023-04-24T01:35:37;9.10;;;3.60;;
51382;SDS011;37475;43.358;1.248;2023-04-24T01:38:03;6.97;;;3.50;;
51382;SDS011;37475;43.358;1.248;2023-04-24T01:40:30;7.65;;;3.88;;
51382;SDS011;37475;43.358;1.248;2023-04-24T01:42:57;6.72;;;3.42;;
51382;SDS011;37475;43.358;1.248;2023-04-24T01:45:23;9.80;;;5.50;;
51382;SDS011;37475;43.358;1.248;2023-04-24T01:47:50;15.70;;;10.18;;
51382;SDS011;37475;43.358;1.248;2023-04-24T01:50:16;12.93;;;8.85;;
51382;SDS011;37475;43.358;1.248;2023-04-24T01:52:43;9.45;;;5.55;;
51382;SDS011;37475;43.358;1.248;2023-04-24T01:55:09;10.98;;;6.75;;
51382;SDS011;37475;43.358;1.248;2023-04-24T01:57:35;11.52;;;6.75;;
51382;SDS011;37475;43.358;1.248;2023-04-24T02:00:02;11.13;;;6.07;;
51382;SDS011;37475;43.358;1.248;2023-04-24T02:02:29;10.85;;;5.40;;
51382;SDS011;37475;43.358;1.248;2023-04-24T02:04:56;9.80;;;4.80;;
51382;SDS011;37475;43.358;1.248;2023-04-24T02:07:22;8.85;;;4.57;;
51382;SDS011;37475;43.358;1.248;2023-04-24T02:09:48;9.18;;;4.57;;
51382;SDS011;37475;43.358;1.248;2023-04-24T02:12:14;14.52;;;6.35;;
51382;SDS011;37475;43.358;1.248;2023-04-24T02:14:42;13.80;;;8.45;;
51382;SDS011;37475;43.358;1.248;2023-04-24T02:17:09;9.10;;;3.85;;
51382;SDS011;37475;43.358;1.248;2023-04-24T02:19:38;6.95;;;3.63;;
51382;SDS011;37475;43.358;1.248;2023-04-24T02:22:04;8.85;;;3.90;;
51382;SDS011;37475;43.358;1.248;2023-04-24T02:24:30;10.43;;;3.35;;
51382;SDS011;37475;43.358;1.248;2023-04-24T02:26:55;11.23;;;3.25;;
51382;SDS011;37475;43.358;1.248;2023-04-24T02:29:22;11.02;;;5.72;;
51382;SDS011;37475;43.358;1.248;2023-04-24T02:31:48;16.80;;;10.57;;
51382;SDS011;37475;43.358;1.248;2023-04-24T02:34:14;16.42;;;8.50;;
51382;SDS011;37475;43.358;1.248;2023-04-24T02:36:41;20.77;;;12.27;;
51382;SDS011;37475;43.358;1.248;2023-04-24T02:39:07;8.70;;;4.15;;
51382;SDS011;37475;43.358;1.248;2023-04-24T02:41:33;9.05;;;3.67;;
51382;SDS011;37475;43.358;1.248;2023-04-24T02:43:58;7.07;;;3.47;;
51382;SDS011;37475;43.358;1.248;2023-04-24T02:46:25;8.52;;;3.47;;
51382;SDS011;37475;43.358;1.248;2023-04-24T02:48:51;11.30;;;5.72;;
51382;SDS011;37475;43.358;1.248;2023-04-24T02:51:16;10.05;;;4.55;;
51382;SDS011;37475;43.358;1.248;2023-04-24T02:53:42;6.95;;;3.63;;
51382;SDS011;37475;43.358;1.248;2023-04-24T02:56:08;9.63;;;3.33;;
51382;SDS011;37475;43.358;1.248;2023-04-24T02:58:37;8.23;;;3.20;;
51382;SDS011;37475;43.358;1.248;2023-04-24T03:01:03;8.90;;;3.25;;
51382;SDS011;37475;43.358;1.248;2023-04-24T03:03:29;7.80;;;3.40;;
51382;SDS011;37475;43.358;1.248;2023-04-24T03:05:55;9.63;;;3.10;;
51382;SDS011;37475;43.358;1.248;2023-04-24T03:08:22;8.25;;;3.20;;
51382;SDS011;37475;43.358;1.248;2023-04-24T03:10:48;10.82;;;2.92;;
51382;SDS011;37475;43.358;1.248;2023-04-24T03:13:15;8.05;;;2.40;;
51382;SDS011;37475;43.358;1.248;2023-04-24T03:15:41;8.55;;;2.80;;
51382;SDS011;37475;43.358;1.248;2023-04-24T03:18:07;8.80;;;2.58;;
51382;SDS011;37475;43.358;1.248;2023-04-24T03:20:33;8.10;;;2.50;;
51382;SDS011;37475;43.358;1.248;2023-04-24T03:22:59;8.30;;;2.38;;
51382;SDS011;37475;43.358;1.248;2023-04-24T03:25:25;10.38;;;2.55;;
51382;SDS011;37475;43.358;1.248;2023-04-24T03:27:51;7.63;;;2.28;;
51382;SDS011;37475;43.358;1.248;2023-04-24T03:30:17;6.63;;;2.38;;
51382;SDS011;37475;43.358;1.248;2023-04-24T03:32:43;10.10;;;2.55;;
51382;SDS011;37475;43.358;1.248;2023-04-24T03:35:08;10.68;;;2.30;;
51382;SDS011;37475;43.358;1.248;2023-04-24T03:37:34;4.97;;;1.90;;
51382;SDS011;37475;43.358;1.248;2023-04-24T03:40:01;7.90;;;2.30;;
51382;SDS011;37475;43.358;1.248;2023-04-24T03:42:27;11.95;;;2.45;;
51382;SDS011;37475;43.358;1.248;2023-04-24T03:44:53;6.80;;;1.90;;
51382;SDS011;37475;43.358;1.248;2023-04-24T03:47:19;8.38;;;1.95;;
51382;SDS011;37475;43.358;1.248;2023-04-24T03:49:45;7.00;;;2.22;;
51382;SDS011;37475;43.358;1.248;2023-04-24T03:52:10;8.82;;;2.22;;
51382;SDS011;37475;43.358;1.248;2023-04-24T03:54:36;11.20;;;2.15;;
51382;SDS011;37475;43.358;1.248;2023-04-24T03:57:02;6.32;;;1.98;;
51382;SDS011;37475;43.358;1.248;2023-04-24T03:59:29;20.35;;;2.83;;
51382;SDS011;37475;43.358;1.248;2023-04-24T04:01:55;7.18;;;2.00;;
51382;SDS011;37475;43.358;1.248;2023-04-24T04:04:21;12.73;;;2.30;;
51382;SDS011;37475;43.358;1.248;2023-04-24T04:06:47;6.45;;;2.05;;
51382;SDS011;37475;43.358;1.248;2023-04-24T04:09:14;6.68;;;2.28;;
51382;SDS011;37475;43.358;1.248;2023-04-24T04:11:40;5.72;;;2.75;;
51382;SDS011;37475;43.358;1.248;2023-04-24T04:14:06;11.40;;;4.75;;
51382;SDS011;37475;43.358;1.248;2023-04-24T04:16:31;12.30;;;6.30;;
51382;SDS011;37475;43.358;1.248;2023-04-24T04:18:57;10.85;;;5.95;;
51382;SDS011;37475;43.358;1.248;2023-04-24T04:21:23;16.38;;;7.65;;
51382;SDS011;37475;43.358;1.248;2023-04-24T04:23:49;14.57;;;8.85;;
51382;SDS011;37475;43.358;1.248;2023-04-24T04:26:15;13.57;;;6.78;;
51382;SDS011;37475;43.358;1.248;2023-04-24T04:28:41;12.88;;;5.60;;
51382;SDS011;37475;43.358;1.248;2023-04-24T04:31:07;12.73;;;5.32;;
51382;SDS011;37475;43.358;1.248;2023-04-24T04:33:33;11.18;;;6.97;;
51382;SDS011;37475;43.358;1.248;2023-04-24T04:35:59;12.65;;;4.38;;
51382;SDS011;37475;43.358;1.248;2023-04-24T04:38:25;7.53;;;4.03;;
51382;SDS011;37475;43.358;1.248;2023-04-24T04:40:55;14.30;;;5.85;;
51382;SDS011;37475;43.358;1.248;2023-04-24T04:43:24;14.85;;;7.43;;
51382;SDS011;37475;43.358;1.248;2023-04-24T04:45:50;10.30;;;3.90;;
51382;SDS011;37475;43.358;1.248;2023-04-24T04:48:17;7.22;;;2.88;;
51382;SDS011;37475;43.358;1.248;2023-04-24T04:50:43;6.88;;;2.80;;
51382;SDS011;37475;43.358;1.248;2023-04-24T04:53:10;7.07;;;2.90;;
51382;SDS011;37475;43.358;1.248;2023-04-24T04:55:36;10.75;;;3.30;;
51382;SDS011;37475;43.358;1.248;2023-04-24T04:58:02;8.20;;;3.15;;
51382;SDS011;37475;43.358;1.248;2023-04-24T05:00:28;8.50;;;3.38;;
51382;SDS011;37475;43.358;1.248;2023-04-24T05:02:58;11.48;;;3.33;;
51382;SDS011;37475;43.358;1.248;2023-04-24T05:05:25;14.95;;;3.83;;
51382;SDS011;37475;43.358;1.248;2023-04-24T05:07:51;8.52;;;3.47;;
51382;SDS011;37475;43.358;1.248;2023-04-24T05:10:16;9.93;;;4.65;;
51382;SDS011;37475;43.358;1.248;2023-04-24T05:12:42;8.98;;;3.60;;
51382;SDS011;37475;43.358;1.248;2023-04-24T05:15:08;9.52;;;4.70;;
51382;SDS011;37475;43.358;1.248;2023-04-24T05:17:35;13.60;;;4.93;;
51382;SDS011;37475;43.358;1.248;2023-04-24T05:20:02;11.43;;;5.68;;
51382;SDS011;37475;43.358;1.248;2023-04-24T05:22:30;8.93;;;4.30;;
51382;SDS011;37475;43.358;1.248;2023-04-24T05:24:56;10.73;;;4.53;;
51382;SDS011;37475;43.358;1.248;2023-04-24T05:27:22;14.23;;;6.53;;
51382;SDS011;37475;43.358;1.248;2023-04-24T05:29:48;10.52;;;6.05;;
51382;SDS011;37475;43.358;1.248;2023-04-24T05:32:14;12.40;;;4.80;;
51382;SDS011;37475;43.358;1.248;2023-04-24T05:34:40;11.57;;;5.03;;
51382;SDS011;37475;43.358;1.248;2023-04-24T05:37:05;11.18;;;4.35;;
51382;SDS011;37475;43.358;1.248;2023-04-24T05:39:33;9.38;;;3.70;;
51382;SDS011;37475;43.358;1.248;2023-04-24T05:42:00;7.18;;;3.50;;
51382;SDS011;37475;43.358;1.248;2023-04-24T05:44:26;14.02;;;3.70;;
51382;SDS011;37475;43.358;1.248;2023-04-24T05:46:52;10.23;;;3.70;;
51382;SDS011;37475;43.358;1.248;2023-04-24T05:49:20;9.98;;;3.78;;
51382;SDS011;37475;43.358;1.248;2023-04-24T05:51:46;11.68;;;3.70;;
51382;SDS011;37475;43.358;1.248;2023-04-24T05:54:11;11.63;;;3.90;;
51382;SDS011;37475;43.358;1.248;2023-04-24T05:56:37;11.93;;;3.70;;
51382;SDS011;37475;43.358;1.248;2023-04-24T05:59:04;11.90;;;3.70;;
51382;SDS011;37475;43.358;1.248;2023-04-24T06:01:30;12.90;;;3.97;;
51382;SDS011;37475;43.358;1.248;2023-04-24T06:03:56;9.55;;;4.00;;
51382;SDS011;37475;43.358;1.248;2023-04-24T06:06:23;8.43;;;3.80;;
51382;SDS011;37475;43.358;1.248;2023-04-24T06:08:49;9.80;;;3.10;;
51382;SDS011;37475;43.358;1.248;2023-04-24T06:11:15;7.22;;;3.65;;
51382;SDS011;37475;43.358;1.248;2023-04-24T06:13:41;11.38;;;3.95;;
51382;SDS011;37475;43.358;1.248;2023-04-24T06:16:07;8.88;;;4.07;;
51382;SDS011;37475;43.358;1.248;2023-04-24T06:18:33;14.48;;;4.07;;
51382;SDS011;37475;43.358;1.248;2023-04-24T06:20:59;10.32;;;3.97;;
51382;SDS011;37475;43.358;1.248;2023-04-24T06:23:24;13.40;;;4.70;;
51382;SDS011;37475;43.358;1.248;2023-04-24T06:25:50;9.13;;;3.95;;
51382;SDS011;37475;43.358;1.248;2023-04-24T06:28:16;7.95;;;3.58;;
51382;SDS011;37475;43.358;1.248;2023-04-24T06:30:42;7.07;;;3.03;;
51382;SDS011;37475;43.358;1.248;2023-04-24T06:33:08;8.35;;;2.90;;
51382;SDS011;37475;43.358;1.248;2023-04-24T06:35:35;6.18;;;2.95;;
51382;SDS011;37475;43.358;1.248;2023-04-24T06:38:02;10.90;;;3.47;;
51382;SDS011;37475;43.358;1.248;2023-04-24T06:40:28;8.15;;;2.78;;
51382;SDS011;37475;43.358;1.248;2023-04-24T06:42:55;9.50;;;3.47;;
51382;SDS011;37475;43.358;1.248;2023-04-24T06:45:22;11.07;;;4.15;;
51382;SDS011;37475;43.358;1.248;2023-04-24T06:47:48;7.65;;;3.65;;
51382;SDS011;37475;43.358;1.248;2023-04-24T06:50:14;9.68;;;3.83;;
51382;SDS011;37475;43.358;1.248;2023-04-24T06:52:40;8.80;;;2.67;;
51382;SDS011;37475;43.358;1.248;2023-04-24T06:55:06;8.23;;;2.55;;
51382;SDS011;37475;43.358;1.248;2023-04-24T06:57:33;10.07;;;2.53;;
51382;SDS011;37475;43.358;1.248;2023-04-24T06:59:59;4.45;;;2.40;;
51382;SDS011;37475;43.358;1.248;2023-04-24T07:02:24;6.05;;;1.88;;
51382;SDS011;37475;43.358;1.248;2023-04-24T07:04:50;11.00;;;2.22;;
51382;SDS011;37475;43.358;1.248;2023-04-24T07:07:17;6.57;;;2.20;;
51382;SDS011;37475;43.358;1.248;2023-04-24T07:09:43;10.23;;;2.17;;
51382;SDS011;37475;43.358;1.248;2023-04-24T07:12:10;10.52;;;2.30;;
51382;SDS011;37475;43.358;1.248;2023-04-24T07:14:37;10.70;;;1.98;;
51382;SDS011;37475;43.358;1.248;2023-04-24T07:17:03;4.47;;;1.90;;
51382;SDS011;37475;43.358;1.248;2023-04-24T07:19:30;7.22;;;1.67;;
51382;SDS011;37475;43.358;1.248;2023-04-24T07:21:56;5.15;;;2.25;;
51382;SDS011;37475;43.358;1.248;2023-04-24T07:24:23;10.35;;;2.13;;
51382;SDS011;37475;43.358;1.248;2023-04-24T07:26:50;12.52;;;2.45;;
51382;SDS011;37475;43.358;1.248;2023-04-24T07:29:17;8.52;;;1.77;;
51382;SDS011;37475;43.358;1.248;2023-04-24T07:31:44;6.15;;;2.20;;
51382;SDS011;37475;43.358;1.248;2023-04-24T07:34:11;6.07;;;2.30;;
51382;SDS011;37475;43.358;1.248;2023-04-24T07:36:36;10.45;;;2.10;;
51382;SDS011;37475;43.358;1.248;2023-04-24T07:39:05;5.18;;;1.90;;
51382;SDS011;37475;43.358;1.248;2023-04-24T07:41:31;10.52;;;2.05;;
51382;SDS011;37475;43.358;1.248;2023-04-24T07:43:56;6.13;;;1.65;;
51382;SDS011;37475;43.358;1.248;2023-04-24T07:46:23;6.10;;;1.60;;
51382;SDS011;37475;43.358;1.248;2023-04-24T07:48:50;5.47;;;1.60;;
51382;SDS011;37475;43.358;1.248;2023-04-24T07:51:15;6.47;;;1.50;;
51382;SDS011;37475;43.358;1.248;2023-04-24T07:53:42;8.75;;;2.03;;
51382;SDS011;37475;43.358;1.248;2023-04-24T07:56:08;5.72;;;1.50;;
51382;SDS011;37475;43.358;1.248;2023-04-24T07:58:34;7.25;;;1.77;;
51382;SDS011;37475;43.358;1.248;2023-04-24T08:01:00;7.13;;;1.63;;
51382;SDS011;37475;43.358;1.248;2023-04-24T08:03:26;6.72;;;1.67;;
51382;SDS011;37475;43.358;1.248;2023-04-24T08:05:53;9.43;;;1.80;;
51382;SDS011;37475;43.358;1.248;2023-04-24T08:08:22;8.90;;;1.77;;
51382;SDS011;37475;43.358;1.248;2023-04-24T08:10:48;7.03;;;1.70;;
51382;SDS011;37475;43.358;1.248;2023-04-24T08:13:15;6.57;;;1.60;;
51382;SDS011;37475;43.358;1.248;2023-04-24T08:15:41;4.78;;;1.55;;
51382;SDS011;37475;43.358;1.248;2023-04-24T08:18:07;6.65;;;1.67;;
51382;SDS011;37475;43.358;1.248;2023-04-24T08:20:33;7.05;;;1.60;;
51382;SDS011;37475;43.358;1.248;2023-04-24T08:22:58;7.40;;;1.58;;
51382;SDS011;37475;43.358;1.248;2023-04-24T08:25:24;6.68;;;1.40;;
51382;SDS011;37475;43.358;1.248;2023-04-24T08:27:50;6.18;;;1.70;;
51382;SDS011;37475;43.358;1.248;2023-04-24T08:30:17;7.15;;;1.70;;
51382;SDS011;37475;43.358;1.248;2023-04-24T08:32:43;5.63;;;1.40;;
51382;SDS011;37475;43.358;1.248;2023-04-24T08:35:09;6.93;;;1.48;;
51382;SDS011;37475;43.358;1.248;2023-04-24T08:37:35;5.55;;;1.38;;
51382;SDS011;37475;43.358;1.248;2023-04-24T08:40:02;8.55;;;1.38;;
51382;SDS011;37475;43.358;1.248;2023-04-24T08:42:41;5.38;;;1.30;;
51382;SDS011;37475;43.358;1.248;2023-04-24T08:45:11;7.43;;;1.45;;
51382;SDS011;37475;43.358;1.248;2023-04-24T08:47:38;6.68;;;1.73;;
51382;SDS011;37475;43.358;1.248;2023-04-24T08:50:06;6.85;;;1.55;;
51382;SDS011;37475;43.358;1.248;2023-04-24T08:52:33;4.65;;;1.40;;
51382;SDS011;37475;43.358;1.248;2023-04-24T08:55:01;6.38;;;1.73;;
51382;SDS011;37475;43.358;1.248;2023-04-24T08:57:27;4.40;;;1.52;;
51382;SDS011;37475;43.358;1.248;2023-04-24T08:59:54;5.85;;;1.45;;
51382;SDS011;37475;43.358;1.248;2023-04-24T09:02:21;8.05;;;1.60;;
51382;SDS011;37475;43.358;1.248;2023-04-24T09:04:49;6.30;;;1.35;;
51382;SDS011;37475;43.358;1.248;2023-04-24T09:07:16;6.65;;;1.60;;
51382;SDS011;37475;43.358;1.248;2023-04-24T09:09:44;7.72;;;1.55;;
51382;SDS011;37475;43.358;1.248;2023-04-24T09:12:10;7.85;;;1.42;;
51382;SDS011;37475;43.358;1.248;2023-04-24T09:14:37;6.53;;;1.30;;
51382;SDS011;37475;43.358;1.248;2023-04-24T09:17:07;8.63;;;1.67;;
51382;SDS011;37475;43.358;1.248;2023-04-24T09:19:33;4.93;;;1.30;;
51382;SDS011;37475;43.358;1.248;2023-04-24T09:21:59;7.20;;;1.33;;
51382;SDS011;37475;43.358;1.248;2023-04-24T09:24:30;3.95;;;1.05;;
51382;SDS011;37475;43.358;1.248;2023-04-24T09:26:59;5.50;;;1.05;;
51382;SDS011;37475;43.358;1.248;2023-04-24T09:29:26;6.50;;;1.25;;
51382;SDS011;37475;43.358;1.248;2023-04-24T09:31:53;5.78;;;0.95;;
51382;SDS011;37475;43.358;1.248;2023-04-24T09:34:22;4.97;;;1.25;;
51382;SDS011;37475;43.358;1.248;2023-04-24T09:36:50;5.60;;;1.02;;
51382;SDS011;37475;43.358;1.248;2023-04-24T09:39:17;4.55;;;1.10;;
51382;SDS011;37475;43.358;1.248;2023-04-24T09:44:24;4.45;;;1.13;;
51382;SDS011;37475;43.358;1.248;2023-04-24T09:51:52;4.35;;;1.00;;
51382;SDS011;37475;43.358;1.248;2023-04-24T09:54:31;3.33;;;0.80;;
51382;SDS011;37475;43.358;1.248;2023-04-24T09:56:58;4.18;;;0.90;;
51382;SDS011;37475;43.358;1.248;2023-04-24T09:59:25;5.40;;;0.80;;
51382;SDS011;37475;43.358;1.248;2023-04-24T10:01:51;6.95;;;1.00;;
51382;SDS011;37475;43.358;1.248;2023-04-24T10:06:49;3.38;;;0.70;;
51382;SDS011;37475;43.358;1.248;2023-04-24T10:09:17;3.20;;;0.70;;
51382;SDS011;37475;43.358;1.248;2023-04-24T10:11:49;4.68;;;0.82;;
51382;SDS011;37475;43.358;1.248;2023-04-24T10:14:22;3.72;;;0.80;;
51382;SDS011;37475;43.358;1.248;2023-04-24T10:16:49;3.92;;;0.85;;
51382;SDS011;37475;43.358;1.248;2023-04-24T10:19:18;3.53;;;0.73;;
51382;SDS011;37475;43.358;1.248;2023-04-24T10:21:45;5.50;;;0.90;;
51382;SDS011;37475;43.358;1.248;2023-04-24T10:24:15;2.80;;;0.80;;
51382;SDS011;37475;43.358;1.248;2023-04-24T10:26:43;2.97;;;0.80;;
51382;SDS011;37475;43.358;1.248;2023-04-24T10:29:11;2.67;;;0.80;;
51382;SDS011;37475;43.358;1.248;2023-04-24T10:31:40;3.60;;;0.90;;
51382;SDS011;37475;43.358;1.248;2023-04-24T10:34:07;2.42;;;0.70;;
51382;SDS011;37475;43.358;1.248;2023-04-24T10:36:35;4.00;;;0.70;;
51382;SDS011;37475;43.358;1.248;2023-04-24T10:39:06;3.42;;;0.82;;
51382;SDS011;37475;43.358;1.248;2023-04-24T10:41:37;4.20;;;1.02;;
51382;SDS011;37475;43.358;1.248;2023-04-24T10:44:13;2.67;;;0.60;;
51382;SDS011;37475;43.358;1.248;2023-04-24T10:46:45;2.85;;;0.68;;
51382;SDS011;37475;43.358;1.248;2023-04-24T10:49:18;4.05;;;0.90;;
51382;SDS011;37475;43.358;1.248;2023-04-24T10:52:00;2.75;;;0.95;;
51382;SDS011;37475;43.358;1.248;2023-04-24T10:59:45;3.78;;;0.70;;
51382;SDS011;37475;43.358;1.248;2023-04-24T11:02:15;2.45;;;0.80;;
51382;SDS011;37475;43.358;1.248;2023-04-24T11:04:42;3.72;;;0.70;;
51382;SDS011;37475;43.358;1.248;2023-04-24T11:07:10;4.35;;;0.80;;
51382;SDS011;37475;43.358;1.248;2023-04-24T11:09:36;4.38;;;0.80;;
51382;SDS011;37475;43.358;1.248;2023-04-24T11:12:06;5.32;;;0.90;;
51382;SDS011;37475;43.358;1.248;2023-04-24T11:17:44;4.22;;;0.90;;
51382;SDS011;37475;43.358;1.248;2023-04-24T11:20:10;6.80;;;1.02;;
51382;SDS011;37475;43.358;1.248;2023-04-24T11:22:40;4.85;;;1.05;;
51382;SDS011;37475;43.358;1.248;2023-04-24T11:25:06;5.90;;;1.10;;
51382;SDS011;37475;43.358;1.248;2023-04-24T11:27:41;4.78;;;0.80;;
51382;SDS011;37475;43.358;1.248;2023-04-24T11:30:09;6.30;;;1.00;;
51382;SDS011;37475;43.358;1.248;2023-04-24T11:32:36;2.72;;;0.82;;
51382;SDS011;37475;43.358;1.248;2023-04-24T11:37:39;4.45;;;0.95;;
51382;SDS011;37475;43.358;1.248;2023-04-24T11:40:16;4.65;;;1.00;;
51382;SDS011;37475;43.358;1.248;2023-04-24T11:42:47;2.75;;;0.63;;
51382;SDS011;37475;43.358;1.248;2023-04-24T11:45:21;4.57;;;1.10;;
51382;SDS011;37475;43.358;1.248;2023-04-24T11:47:55;4.18;;;0.90;;
51382;SDS011;37475;43.358;1.248;2023-04-24T11:50:22;3.92;;;0.85;;
51382;SDS011;37475;43.358;1.248;2023-04-24T11:52:53;4.27;;;1.10;;
51382;SDS011;37475;43.358;1.248;2023-04-24T11:57:46;5.30;;;1.00;;
51382;SDS011;37475;43.358;1.248;2023-04-24T12:00:21;3.83;;;0.85;;
51382;SDS011;37475;43.358;1.248;2023-04-24T12:02:50;4.63;;;0.93;;
51382;SDS011;37475;43.358;1.248;2023-04-24T12:05:23;6.50;;;1.02;;
51382;SDS011;37475;43.358;1.248;2023-04-24T12:07:51;4.70;;;1.00;;
51382;SDS011;37475;43.358;1.248;2023-04-24T12:10:21;4.78;;;1.00;;
51382;SDS011;37475;43.358;1.248;2023-04-24T12:12:53;4.63;;;1.40;;
51382;SDS011;37475;43.358;1.248;2023-04-24T12:15:21;3.65;;;1.00;;
51382;SDS011;37475;43.358;1.248;2023-04-24T12:17:50;4.22;;;1.15;;
51382;SDS011;37475;43.358;1.248;2023-04-24T12:20:20;3.58;;;0.85;;
51382;SDS011;37475;43.358;1.248;2023-04-24T12:22:58;2.90;;;0.80;;
51382;SDS011;37475;43.358;1.248;2023-04-24T12:25:26;4.85;;;0.85;;
51382;SDS011;37475;43.358;1.248;2023-04-24T12:30:29;5.45;;;1.05;;
51382;SDS011;37475;43.358;1.248;2023-04-24T12:33:03;5.45;;;0.98;;
51382;SDS011;37475;43.358;1.248;2023-04-24T12:35:30;3.08;;;0.88;;
51382;SDS011;37475;43.358;1.248;2023-04-24T12:38:12;4.07;;;0.90;;
51382;SDS011;37475;43.358;1.248;2023-04-24T12:40:39;5.63;;;1.02;;
51382;SDS011;37475;43.358;1.248;2023-04-24T12:43:13;4.65;;;0.90;;
51382;SDS011;37475;43.358;1.248;2023-04-24T12:45:44;6.15;;;1.10;;
51382;SDS011;37475;43.358;1.248;2023-04-24T12:48:10;2.63;;;0.70;;
51382;SDS011;37475;43.358;1.248;2023-04-24T12:50:37;2.40;;;0.77;;
51382;SDS011;37475;43.358;1.248;2023-04-24T12:53:03;5.15;;;0.90;;
51382;SDS011;37475;43.358;1.248;2023-04-24T12:55:29;6.65;;;1.17;;
51382;SDS011;37475;43.358;1.248;2023-04-24T12:57:55;6.57;;;1.33;;
51382;SDS011;37475;43.358;1.248;2023-04-24T13:00:21;7.88;;;1.10;;
51382;SDS011;37475;43.358;1.248;2023-04-24T13:02:47;3.28;;;0.70;;
51382;SDS011;37475;43.358;1.248;2023-04-24T13:05:13;3.53;;;0.93;;
51382;SDS011;37475;43.358;1.248;2023-04-24T13:07:39;4.32;;;0.80;;
51382;SDS011;37475;43.358;1.248;2023-04-24T13:10:05;3.92;;;1.00;;
51382;SDS011;37475;43.358;1.248;2023-04-24T13:12:32;3.17;;;0.70;;
51382;SDS011;37475;43.358;1.248;2023-04-24T13:14:58;3.70;;;0.80;;
51382;SDS011;37475;43.358;1.248;2023-04-24T13:17:24;4.55;;;1.00;;
51382;SDS011;37475;43.358;1.248;2023-04-24T13:19:50;4.57;;;0.93;;
51382;SDS011;37475;43.358;1.248;2023-04-24T13:22:16;3.72;;;0.82;;
51382;SDS011;37475;43.358;1.248;2023-04-24T13:24:46;5.50;;;1.13;;
51382;SDS011;37475;43.358;1.248;2023-04-24T13:27:13;2.90;;;1.00;;
51382;SDS011;37475;43.358;1.248;2023-04-24T13:29:40;4.43;;;0.80;;
51382;SDS011;37475;43.358;1.248;2023-04-24T13:32:06;5.05;;;0.90;;
51382;SDS011;37475;43.358;1.248;2023-04-24T13:34:33;4.68;;;0.95;;
51382;SDS011;37475;43.358;1.248;2023-04-24T13:36:59;3.47;;;0.90;;
51382;SDS011;37475;43.358;1.248;2023-04-24T13:39:26;3.83;;;1.02;;
51382;SDS011;37475;43.358;1.248;2023-04-24T13:41:52;5.95;;;1.13;;
51382;SDS011;37475;43.358;1.248;2023-04-24T13:44:19;2.47;;;0.85;;
51382;SDS011;37475;43.358;1.248;2023-04-24T13:46:47;4.43;;;0.88;;
51382;SDS011;37475;43.358;1.248;2023-04-24T13:49:15;5.10;;;0.90;;
51382;SDS011;37475;43.358;1.248;2023-04-24T13:51:41;3.47;;;1.00;;
51382;SDS011;37475;43.358;1.248;2023-04-24T13:54:08;4.82;;;0.93;;
51382;SDS011;37475;43.358;1.248;2023-04-24T13:56:34;2.88;;;0.90;;
51382;SDS011;37475;43.358;1.248;2023-04-24T13:59:00;3.88;;;1.00;;
51382;SDS011;37475;43.358;1.248;2023-04-24T14:01:27;5.45;;;1.00;;
51382;SDS011;37475;43.358;1.248;2023-04-24T14:03:53;5.82;;;1.10;;
51382;SDS011;37475;43.358;1.248;2023-04-24T14:06:20;4.43;;;1.20;;
51382;SDS011;37475;43.358;1.248;2023-04-24T14:08:48;3.15;;;0.90;;
51382;SDS011;37475;43.358;1.248;2023-04-24T14:11:15;3.65;;;0.90;;
51382;SDS011;37475;43.358;1.248;2023-04-24T14:13:41;4.07;;;0.98;;
51382;SDS011;37475;43.358;1.248;2023-04-24T14:16:08;5.28;;;1.10;;
51382;SDS011;37475;43.358;1.248;2023-04-24T14:18:34;4.63;;;1.02;;
51382;SDS011;37475;43.358;1.248;2023-04-24T14:21:01;3.72;;;1.00;;
51382;SDS011;37475;43.358;1.248;2023-04-24T14:23:30;3.95;;;0.98;;
51382;SDS011;37475;43.358;1.248;2023-04-24T14:25:59;4.55;;;1.17;;
51382;SDS011;37475;43.358;1.248;2023-04-24T14:28:25;6.28;;;1.30;;
51382;SDS011;37475;43.358;1.248;2023-04-24T14:30:51;3.63;;;1.10;;
51382;SDS011;37475;43.358;1.248;2023-04-24T14:33:18;5.68;;;1.13;;
51382;SDS011;37475;43.358;1.248;2023-04-24T14:35:44;4.40;;;1.20;;
51382;SDS011;37475;43.358;1.248;2023-04-24T14:38:11;7.00;;;1.20;;
51382;SDS011;37475;43.358;1.248;2023-04-24T14:40:37;5.72;;;1.00;;
51382;SDS011;37475;43.358;1.248;2023-04-24T14:43:03;5.82;;;1.38;;
51382;SDS011;37475;43.358;1.248;2023-04-24T14:45:29;2.45;;;1.00;;
51382;SDS011;37475;43.358;1.248;2023-04-24T14:47:55;5.70;;;1.10;;
51382;SDS011;37475;43.358;1.248;2023-04-24T14:50:21;5.22;;;1.08;;
51382;SDS011;37475;43.358;1.248;2023-04-24T14:52:47;4.18;;;1.17;;
51382;SDS011;37475;43.358;1.248;2023-04-24T14:55:13;6.07;;;1.20;;
51382;SDS011;37475;43.358;1.248;2023-04-24T14:57:39;3.30;;;1.10;;
51382;SDS011;37475;43.358;1.248;2023-04-24T15:00:05;4.18;;;1.08;;
51382;SDS011;37475;43.358;1.248;2023-04-24T15:02:35;5.60;;;1.00;;
51382;SDS011;37475;43.358;1.248;2023-04-24T15:05:04;3.72;;;1.15;;
51382;SDS011;37475;43.358;1.248;2023-04-24T15:07:31;3.75;;;0.90;;